createdAt,value
2023-03-21T00:01:50.317Z,21.16
2023-03-21T00:04:17.132Z,21.16
2023-03-21T00:06:43.695Z,21.14
2023-03-21T00:09:10.350Z,21.13
2023-03-21T00:11:36.998Z,21.13
2023-03-21T00:14:03.572Z,21.12
2023-03-21T00:16:35.219Z,21.11
2023-03-21T00:19:06.421Z,21.09
2023-03-21T00:21:55.626Z,21.09
2023-03-21T00:24:20.966Z,21.09
2023-03-21T00:26:47.513Z,21.08
2023-03-21T00:29:14.051Z,21.07
2023-03-21T00:31:40.533Z,21.08
2023-03-21T00:34:07.224Z,21.06
2023-03-21T00:36:34.083Z,21.08
2023-03-21T00:39:04.655Z,21.06
2023-03-21T00:41:42.001Z,21.06
2023-03-21T00:44:09.789Z,21.06
2023-03-21T00:46:46.952Z,21.02
2023-03-21T00:49:20.286Z,21.02
2023-03-21T00:51:51.201Z,21.01
2023-03-21T00:54:18.262Z,21.01
2023-03-21T00:56:44.753Z,21.01
2023-03-21T00:59:11.255Z,21.01
2023-03-21T01:01:38.056Z,21.01
2023-03-21T01:04:07.348Z,21.01
2023-03-21T01:06:40.850Z,21.01
2023-03-21T01:09:12.187Z,21.00
2023-03-21T01:11:38.792Z,20.98
2023-03-21T01:14:20.789Z,20.99
2023-03-21T01:16:48.541Z,20.97
2023-03-21T01:19:25.589Z,20.99
2023-03-21T01:21:56.596Z,20.97
2023-03-21T01:24:23.301Z,20.97
2023-03-21T01:26:50.122Z,20.96
2023-03-21T01:29:16.738Z,20.96
2023-03-21T01:31:43.346Z,20.95
2023-03-21T01:34:10.085Z,20.95
2023-03-21T01:36:37.041Z,20.95
2023-03-21T01:39:04.742Z,20.96
2023-03-21T01:41:43.813Z,20.96
2023-03-21T01:44:20.061Z,20.95
2023-03-21T01:47:03.664Z,20.93
2023-03-21T01:49:47.886Z,20.93
2023-03-21T01:52:33.481Z,20.93
2023-03-21T01:55:07.017Z,20.92
2023-03-21T01:57:54.953Z,20.91
2023-03-21T02:00:29.630Z,20.89
2023-03-21T02:03:11.327Z,20.88
2023-03-21T02:06:01.585Z,20.88
2023-03-21T02:08:39.170Z,20.88
2023-03-21T02:11:07.268Z,20.87
2023-03-21T02:13:34.007Z,20.88
2023-03-21T02:16:18.597Z,20.86
2023-03-21T02:19:08.373Z,20.86
2023-03-21T02:21:56.405Z,20.85
2023-03-21T02:24:54.634Z,20.85
2023-03-21T02:27:26.203Z,20.84
2023-03-21T02:30:28.257Z,20.85
2023-03-21T02:33:19.391Z,20.84
2023-03-21T02:36:14.194Z,20.83
2023-03-21T02:38:47.454Z,20.84
2023-03-21T02:41:25.452Z,20.83
2023-03-21T02:44:00.639Z,20.82
2023-03-21T02:46:43.914Z,20.82
2023-03-21T02:49:16.049Z,20.80
2023-03-21T02:51:44.028Z,20.82
2023-03-21T02:54:38.347Z,20.81
2023-03-21T02:57:06.013Z,20.78
2023-03-21T02:59:39.376Z,20.78
2023-03-21T03:02:08.660Z,20.79
2023-03-21T03:04:35.522Z,20.78
2023-03-21T03:07:53.261Z,20.78
2023-03-21T03:10:57.323Z,20.79
2023-03-21T03:13:46.027Z,20.79
2023-03-21T03:16:43.658Z,20.78
2023-03-21T03:19:31.188Z,20.77
2023-03-21T03:22:23.657Z,20.77
2023-03-21T03:25:16.343Z,20.78
2023-03-21T03:27:51.324Z,20.76
2023-03-21T03:30:18.193Z,20.76
2023-03-21T03:32:54.019Z,20.77
2023-03-21T03:35:23.004Z,20.75
2023-03-21T03:37:55.193Z,20.75
2023-03-21T03:40:28.595Z,20.75
2023-03-21T03:43:03.288Z,20.76
2023-03-21T03:45:47.114Z,20.75
2023-03-21T03:48:19.211Z,20.76
2023-03-21T03:51:07.736Z,20.74
2023-03-21T03:53:43.219Z,20.73
2023-03-21T03:56:13.045Z,20.73
2023-03-21T03:58:45.840Z,20.72
2023-03-21T04:01:14.017Z,20.73
2023-03-21T04:03:50.255Z,20.72
2023-03-21T04:06:19.631Z,20.74
2023-03-21T04:08:46.190Z,20.73
2023-03-21T04:11:16.295Z,20.73
2023-03-21T04:13:42.946Z,20.73
2023-03-21T04:16:11.594Z,20.72
2023-03-21T04:18:39.300Z,20.72
2023-03-21T04:21:13.764Z,20.72
2023-03-21T04:23:41.299Z,20.72
2023-03-21T04:26:08.074Z,20.73
2023-03-21T04:28:37.163Z,20.72
2023-03-21T04:31:19.072Z,20.72
2023-03-21T04:33:50.931Z,20.72
2023-03-21T04:36:27.381Z,20.71
2023-03-21T04:38:54.874Z,20.69
2023-03-21T04:41:21.410Z,20.70
2023-03-21T04:43:48.442Z,20.69
2023-03-21T04:46:15.584Z,20.71
2023-03-21T04:48:42.374Z,20.74
2023-03-21T04:51:09.047Z,20.75
2023-03-21T04:53:35.946Z,20.75
2023-03-21T04:56:02.484Z,20.77
2023-03-21T04:58:29.779Z,20.80
2023-03-21T05:00:57.392Z,20.82
2023-03-21T05:03:24.935Z,20.85
2023-03-21T05:05:51.497Z,20.89
2023-03-21T05:08:18.080Z,20.93
2023-03-21T05:10:44.637Z,20.96
2023-03-21T05:13:11.258Z,21.00
2023-03-21T05:15:38.274Z,21.04
2023-03-21T05:18:11.448Z,21.06
2023-03-21T05:20:42.854Z,21.09
2023-03-21T05:23:10.979Z,21.08
2023-03-21T05:25:39.029Z,21.09
2023-03-21T05:28:07.079Z,21.11
2023-03-21T05:30:33.659Z,21.11
2023-03-21T05:33:00.610Z,21.12
2023-03-21T05:35:27.326Z,21.13
2023-03-21T05:37:53.880Z,21.13
2023-03-21T05:40:20.637Z,21.13
2023-03-21T05:42:48.122Z,21.13
2023-03-21T05:45:15.993Z,21.13
2023-03-21T05:47:42.615Z,21.12
2023-03-21T05:50:11.221Z,21.12
2023-03-21T05:52:38.044Z,21.12
2023-03-21T05:55:05.388Z,21.12
2023-03-21T05:57:35.132Z,21.10
2023-03-21T06:00:02.182Z,21.10
2023-03-21T06:02:28.772Z,21.10
2023-03-21T06:04:56.589Z,21.09
2023-03-21T06:07:23.339Z,21.09
2023-03-21T06:09:50.006Z,21.11
2023-03-21T06:12:16.710Z,21.13
2023-03-21T06:14:43.297Z,21.13
2023-03-21T06:17:09.898Z,21.13
2023-03-21T06:19:36.417Z,21.14
2023-03-21T06:22:03.144Z,21.13
2023-03-21T06:24:29.639Z,21.14
2023-03-21T06:26:56.200Z,21.14
2023-03-21T06:29:22.844Z,21.14
2023-03-21T06:31:49.529Z,21.14
2023-03-21T06:34:16.392Z,21.13
2023-03-21T06:36:44.716Z,21.12
2023-03-21T06:39:11.354Z,21.13
2023-03-21T06:41:37.942Z,21.12
2023-03-21T06:44:04.548Z,21.13
2023-03-21T06:46:31.162Z,21.12
2023-03-21T06:48:57.744Z,21.13
2023-03-21T06:51:24.475Z,21.14
2023-03-21T06:53:51.021Z,21.13
2023-03-21T06:56:17.541Z,21.15
2023-03-21T06:58:44.366Z,21.15
2023-03-21T07:01:11.149Z,21.14
2023-03-21T07:03:37.988Z,21.14
2023-03-21T07:06:11.874Z,21.16
2023-03-21T07:08:40.017Z,21.15
2023-03-21T07:11:07.470Z,21.16
2023-03-21T07:13:34.151Z,21.15
2023-03-21T07:16:00.951Z,21.14
2023-03-21T07:18:27.729Z,21.14
2023-03-21T07:20:54.425Z,21.15
2023-03-21T07:23:25.839Z,21.16
2023-03-21T07:25:53.113Z,21.16
2023-03-21T07:28:20.624Z,21.16
2023-03-21T07:30:56.253Z,21.15
2023-03-21T07:33:23.976Z,21.14
2023-03-21T07:35:51.747Z,21.14
2023-03-21T07:38:19.615Z,21.14
2023-03-21T07:40:47.648Z,21.15
2023-03-21T07:43:15.350Z,21.14
2023-03-21T07:45:42.658Z,21.13
2023-03-21T07:48:10.941Z,21.14
2023-03-21T07:50:37.563Z,21.16
2023-03-21T07:53:04.075Z,21.15
2023-03-21T07:55:30.661Z,21.16
2023-03-21T07:57:57.302Z,21.15
2023-03-21T08:00:24.185Z,21.16
2023-03-21T08:02:57.889Z,21.16
2023-03-21T08:05:33.682Z,21.18
2023-03-21T08:08:00.624Z,21.18
2023-03-21T08:10:27.332Z,21.19
2023-03-21T08:12:54.130Z,21.18
2023-03-21T08:15:20.900Z,21.19
2023-03-21T08:17:47.672Z,21.19
2023-03-21T08:20:18.154Z,21.19
2023-03-21T08:22:45.067Z,21.18
2023-03-21T08:25:13.909Z,21.19
2023-03-21T08:27:42.263Z,21.18
2023-03-21T08:30:12.254Z,21.18
2023-03-21T08:32:39.810Z,21.18
2023-03-21T08:35:11.784Z,21.19
2023-03-21T08:37:39.539Z,21.19
2023-03-21T08:40:09.208Z,21.19
2023-03-21T08:42:35.772Z,21.19
2023-03-21T08:45:02.298Z,21.19
2023-03-21T08:47:28.847Z,21.19
2023-03-21T08:49:58.652Z,21.19
2023-03-21T08:52:27.079Z,21.22
2023-03-21T08:54:54.656Z,21.23
2023-03-21T08:57:21.494Z,21.23
2023-03-21T08:59:48.242Z,21.24
2023-03-21T09:02:17.053Z,21.25
2023-03-21T09:04:44.832Z,21.26
2023-03-21T09:07:14.338Z,21.27
2023-03-21T09:09:41.758Z,21.26
2023-03-21T09:12:08.643Z,21.27
2023-03-21T09:14:35.510Z,21.27
2023-03-21T09:17:02.271Z,21.27
2023-03-21T09:19:30.140Z,21.27
2023-03-21T09:21:57.758Z,21.27
2023-03-21T09:24:24.344Z,21.27
2023-03-21T09:26:52.697Z,21.27
2023-03-21T09:29:21.113Z,21.29
2023-03-21T09:31:47.765Z,21.28
2023-03-21T09:34:17.769Z,21.29
2023-03-21T09:36:44.723Z,21.28
2023-03-21T09:39:12.738Z,21.28
2023-03-21T09:42:12.652Z,21.28
2023-03-21T09:45:08.719Z,21.28
2023-03-21T09:47:49.700Z,21.27
2023-03-21T09:50:20.650Z,21.28
2023-03-21T09:52:50.925Z,21.28
2023-03-21T09:55:31.185Z,21.28
2023-03-21T09:58:09.509Z,21.27
2023-03-21T10:00:40.235Z,21.26
2023-03-21T10:03:19.733Z,21.27
2023-03-21T10:05:47.375Z,21.27
2023-03-21T10:08:24.978Z,21.28
2023-03-21T10:10:55.562Z,21.29
2023-03-21T10:13:26.539Z,21.30
2023-03-21T10:15:57.592Z,21.29
2023-03-21T10:18:27.612Z,21.28
2023-03-21T10:20:54.761Z,21.28
2023-03-21T10:23:25.585Z,21.32
2023-03-21T10:26:01.155Z,21.36
2023-03-21T10:28:46.184Z,21.38
2023-03-21T10:31:20.524Z,21.40
2023-03-21T10:33:50.636Z,21.40
2023-03-21T10:36:22.903Z,21.42
2023-03-21T10:39:02.784Z,21.43
2023-03-21T10:41:29.617Z,21.45
2023-03-21T10:44:14.490Z,21.49
2023-03-21T10:46:57.639Z,21.49
2023-03-21T10:49:26.454Z,21.52
2023-03-21T10:51:59.246Z,21.52
2023-03-21T10:54:31.473Z,21.53
2023-03-21T10:57:04.912Z,21.53
2023-03-21T10:59:49.366Z,21.53
2023-03-21T11:02:28.621Z,21.54
2023-03-21T11:04:56.078Z,21.53
2023-03-21T11:07:25.993Z,21.53
2023-03-21T11:09:59.458Z,21.54
2023-03-21T11:12:37.793Z,21.55
2023-03-21T11:15:38.260Z,21.55
2023-03-21T11:18:15.941Z,21.55
2023-03-21T11:20:49.877Z,21.54
2023-03-21T11:23:17.026Z,21.52
2023-03-21T11:25:48.959Z,21.51
2023-03-21T11:28:19.790Z,21.51
2023-03-21T11:30:52.556Z,21.53
2023-03-21T11:33:20.601Z,21.51
2023-03-21T11:35:59.771Z,21.51
2023-03-21T11:38:31.891Z,21.51
2023-03-21T11:41:01.579Z,21.50
2023-03-21T11:43:39.015Z,21.51
2023-03-21T11:46:10.471Z,21.52
2023-03-21T11:48:43.244Z,21.54
2023-03-21T11:51:40.266Z,21.55
2023-03-21T11:54:25.293Z,21.56
2023-03-21T11:56:56.076Z,21.58
2023-03-21T11:59:41.941Z,21.56
2023-03-21T12:02:17.733Z,21.56
2023-03-21T12:04:53.526Z,21.55
2023-03-21T12:07:55.457Z,21.56
2023-03-21T12:10:43.007Z,21.55
2023-03-21T12:13:34.121Z,21.55
2023-03-21T12:16:18.802Z,21.55
2023-03-21T12:19:32.690Z,21.55
2023-03-21T12:22:02.253Z,21.54
2023-03-21T12:24:39.570Z,21.54
2023-03-21T12:27:24.792Z,21.53
2023-03-21T12:29:56.977Z,21.54
2023-03-21T12:32:44.911Z,21.55
2023-03-21T12:35:23.639Z,21.54
2023-03-21T12:38:05.048Z,21.56
2023-03-21T12:40:43.821Z,21.56
2023-03-21T12:43:19.284Z,21.56
2023-03-21T12:45:50.452Z,21.56
2023-03-21T12:48:37.079Z,21.57
2023-03-21T12:51:08.886Z,21.57
2023-03-21T12:53:57.048Z,21.58
2023-03-21T12:56:45.482Z,21.57
2023-03-21T12:59:26.267Z,21.58
2023-03-21T13:01:58.167Z,21.56
2023-03-21T13:04:40.753Z,21.56
2023-03-21T13:07:10.419Z,21.57
2023-03-21T13:09:41.844Z,21.57
2023-03-21T13:12:34.667Z,21.56
2023-03-21T13:15:27.357Z,21.56
2023-03-21T13:18:04.349Z,21.55
2023-03-21T13:20:42.813Z,21.55
2023-03-21T13:23:09.695Z,21.56
2023-03-21T13:25:52.310Z,21.54
2023-03-21T13:28:27.884Z,21.55
2023-03-21T13:31:22.077Z,21.55
2023-03-21T13:33:50.510Z,21.54
2023-03-21T13:36:28.356Z,21.55
2023-03-21T13:39:01.386Z,21.55
2023-03-21T13:41:40.641Z,21.55
2023-03-21T13:44:09.928Z,21.54
2023-03-21T13:46:53.553Z,21.55
2023-03-21T13:49:35.784Z,21.55
2023-03-21T13:52:27.119Z,21.56
2023-03-21T13:54:56.045Z,21.54
2023-03-21T13:57:38.146Z,21.54
2023-03-21T14:00:18.390Z,21.55
2023-03-21T14:03:17.520Z,21.56
2023-03-21T14:05:49.864Z,21.55
2023-03-21T14:08:31.269Z,21.55
2023-03-21T14:11:07.350Z,21.55
2023-03-21T14:13:38.008Z,21.55
2023-03-21T14:16:17.087Z,21.55
2023-03-21T14:18:55.255Z,21.55
2023-03-21T14:21:26.446Z,21.56
2023-03-21T14:24:13.142Z,21.56
2023-03-21T14:27:06.437Z,21.55
2023-03-21T14:29:35.276Z,21.54
2023-03-21T14:32:03.359Z,21.54
2023-03-21T14:34:33.192Z,21.54
2023-03-21T14:36:59.753Z,21.53
2023-03-21T14:39:30.814Z,21.53
2023-03-21T14:42:04.370Z,21.55
2023-03-21T14:44:52.921Z,21.54
2023-03-21T14:47:22.495Z,21.54
2023-03-21T14:49:50.599Z,21.52
2023-03-21T14:52:24.895Z,21.54
2023-03-21T14:54:52.720Z,21.53
2023-03-21T14:57:22.739Z,21.52
2023-03-21T14:59:53.476Z,21.53
2023-03-21T15:02:25.383Z,21.52
2023-03-21T15:04:56.465Z,21.53
2023-03-21T15:07:35.039Z,21.53
2023-03-21T15:10:09.393Z,21.54
2023-03-21T15:12:35.893Z,21.55
2023-03-21T15:15:03.305Z,21.56
2023-03-21T15:17:30.625Z,21.56
2023-03-21T15:19:57.217Z,21.56
2023-03-21T15:22:34.474Z,21.56
2023-03-21T15:25:06.140Z,21.56
2023-03-21T15:27:38.159Z,21.57
2023-03-21T15:30:06.118Z,21.59
2023-03-21T15:32:36.612Z,21.57
2023-03-21T15:35:13.472Z,21.58
2023-03-21T15:37:40.183Z,21.58
2023-03-21T15:40:20.347Z,21.58
2023-03-21T15:42:46.900Z,21.58
2023-03-21T15:45:25.072Z,21.58
2023-03-21T15:47:54.497Z,21.58
2023-03-21T15:50:23.853Z,21.58
2023-03-21T15:52:52.170Z,21.58
2023-03-21T15:55:35.404Z,21.58
2023-03-21T15:58:09.864Z,21.59
2023-03-21T16:00:38.481Z,21.59
2023-03-21T16:03:17.089Z,21.59
2023-03-21T16:06:08.329Z,21.58
2023-03-21T16:09:03.021Z,21.58
2023-03-21T16:11:41.445Z,21.58
2023-03-21T16:14:09.400Z,21.59
2023-03-21T16:16:36.299Z,21.57
2023-03-21T16:19:03.486Z,21.56
2023-03-21T16:21:32.048Z,21.57
2023-03-21T16:23:58.585Z,21.57
2023-03-21T16:26:28.647Z,21.57
2023-03-21T16:28:55.941Z,21.58
2023-03-21T16:31:34.122Z,21.59
2023-03-21T16:34:01.777Z,21.59
2023-03-21T16:36:46.746Z,21.58
2023-03-21T16:39:22.007Z,21.58
2023-03-21T16:41:50.528Z,21.60
2023-03-21T16:44:17.600Z,21.59
2023-03-21T16:46:44.471Z,21.58
2023-03-21T16:49:24.536Z,21.60
2023-03-21T16:51:51.902Z,21.60
2023-03-21T16:54:18.442Z,21.60
2023-03-21T16:56:48.941Z,21.60
2023-03-21T16:59:15.508Z,21.61
2023-03-21T17:01:46.031Z,21.60
2023-03-21T17:04:13.585Z,21.58
2023-03-21T17:06:49.417Z,21.60
2023-03-21T17:09:19.269Z,21.58
2023-03-21T17:11:45.890Z,21.58
2023-03-21T17:14:13.798Z,21.59
2023-03-21T17:16:42.838Z,21.58
2023-03-21T17:19:23.934Z,21.58
2023-03-21T17:21:50.603Z,21.59
2023-03-21T17:24:17.424Z,21.58
2023-03-21T17:26:44.186Z,21.59
2023-03-21T17:29:14.201Z,21.60
2023-03-21T17:31:41.282Z,21.60
2023-03-21T17:34:08.614Z,21.59
2023-03-21T17:36:37.623Z,21.58
2023-03-21T17:39:06.877Z,21.60
2023-03-21T17:41:33.744Z,21.61
2023-03-21T17:44:00.741Z,21.60
2023-03-21T17:46:32.220Z,21.61
2023-03-21T17:48:58.790Z,21.61
2023-03-21T17:51:30.087Z,21.61
2023-03-21T17:53:57.372Z,21.61
2023-03-21T17:56:32.216Z,21.61
2023-03-21T17:59:00.857Z,21.60
2023-03-21T18:01:28.273Z,21.60
2023-03-21T18:03:55.032Z,21.60
2023-03-21T18:06:23.467Z,21.61
2023-03-21T18:08:52.973Z,21.61
2023-03-21T18:11:21.596Z,21.60
2023-03-21T18:13:48.643Z,21.59
2023-03-21T18:16:21.744Z,21.60
2023-03-21T18:18:49.529Z,21.58
2023-03-21T18:21:19.655Z,21.59
2023-03-21T18:23:47.585Z,21.57
2023-03-21T18:26:19.778Z,21.59
2023-03-21T18:29:11.181Z,21.58
2023-03-21T18:31:34.301Z,21.58
2023-03-21T18:34:00.886Z,21.56
2023-03-21T18:36:28.722Z,21.56
2023-03-21T18:38:56.850Z,21.56
2023-03-21T18:41:23.558Z,21.56
2023-03-21T18:44:16.712Z,21.56
2023-03-21T18:46:37.345Z,21.56
2023-03-21T18:49:33.294Z,21.55
2023-03-21T18:51:52.509Z,21.55
2023-03-21T18:54:19.099Z,21.54
2023-03-21T18:57:28.243Z,21.54
2023-03-21T18:59:39.070Z,21.54
2023-03-21T19:02:06.669Z,21.54
2023-03-21T19:04:34.211Z,21.52
2023-03-21T19:07:00.860Z,21.52
2023-03-21T19:09:31.612Z,21.54
2023-03-21T19:11:59.005Z,21.53
2023-03-21T19:14:25.583Z,21.53
2023-03-21T19:19:39.769Z,21.55
2023-03-21T19:22:06.366Z,21.54
2023-03-21T19:24:33.117Z,21.53
2023-03-21T19:27:00.011Z,21.54
2023-03-21T19:29:26.632Z,21.53
2023-03-21T19:31:53.397Z,21.54
2023-03-21T19:34:20.855Z,21.54
2023-03-21T19:36:51.648Z,21.53
2023-03-21T19:39:22.048Z,21.53
2023-03-21T19:41:48.856Z,21.54
2023-03-21T19:44:16.588Z,21.53
2023-03-21T19:46:43.177Z,21.52
2023-03-21T19:49:10.309Z,21.53
2023-03-21T19:51:37.378Z,21.53
2023-03-21T19:54:05.634Z,21.52
2023-03-21T19:56:34.558Z,21.53
2023-03-21T19:59:02.771Z,21.52
2023-03-21T20:01:29.841Z,21.52
2023-03-21T20:03:56.377Z,21.51
2023-03-21T20:06:23.996Z,21.50
2023-03-21T20:11:38.780Z,21.50
2023-03-21T20:14:06.360Z,21.49
2023-03-21T20:16:35.801Z,21.49
2023-03-21T20:19:08.901Z,21.49
2023-03-21T20:21:46.544Z,21.49
2023-03-21T20:24:16.494Z,21.47
2023-03-21T20:26:45.038Z,21.48
2023-03-21T20:30:05.453Z,21.48
2023-03-21T20:31:58.709Z,21.48
2023-03-21T20:34:25.308Z,21.47
2023-03-21T20:36:53.263Z,21.48
2023-03-21T20:39:19.934Z,21.49
2023-03-21T20:41:46.759Z,21.49
2023-03-21T20:44:44.796Z,21.50
2023-03-21T20:47:00.436Z,21.50
2023-03-21T20:49:28.213Z,21.49
2023-03-21T20:54:42.266Z,21.48
2023-03-21T20:57:09.207Z,21.47
2023-03-21T20:59:35.850Z,21.47
2023-03-21T21:02:03.175Z,21.46
2023-03-21T21:04:48.322Z,21.44
2023-03-21T21:07:20.401Z,21.45
2023-03-21T21:09:48.021Z,21.46
2023-03-21T21:12:16.467Z,21.47
2023-03-21T21:14:44.055Z,21.46
2023-03-21T21:17:30.745Z,21.46
2023-03-21T21:19:57.322Z,21.46
2023-03-21T21:22:23.857Z,21.44
2023-03-21T21:24:50.379Z,21.44
2023-03-21T21:27:16.946Z,21.44
2023-03-21T21:29:43.748Z,21.44
2023-03-21T21:32:11.274Z,21.43
2023-03-21T21:34:38.024Z,21.43
2023-03-21T21:37:05.109Z,21.41
2023-03-21T21:39:37.736Z,21.41
2023-03-21T21:42:05.155Z,21.40
2023-03-21T21:44:31.656Z,21.40
2023-03-21T21:46:58.352Z,21.39
2023-03-21T21:49:24.952Z,21.36
2023-03-21T21:51:51.407Z,21.34
2023-03-21T21:54:18.689Z,21.32
2023-03-21T21:56:48.373Z,21.31
2023-03-21T21:59:22.100Z,21.30
2023-03-21T22:01:51.204Z,21.30
2023-03-21T22:04:18.700Z,21.29
2023-03-21T22:06:47.498Z,21.28
2023-03-21T22:09:15.870Z,21.26
2023-03-21T22:11:42.714Z,21.25
2023-03-21T22:14:09.521Z,21.25
2023-03-21T22:16:36.350Z,21.25
2023-03-21T22:19:03.343Z,21.23
2023-03-21T22:21:29.827Z,21.23
2023-03-21T22:23:56.378Z,21.23
2023-03-21T22:26:23.364Z,21.21
2023-03-21T22:28:49.913Z,21.22
2023-03-21T22:31:17.264Z,21.22
2023-03-21T22:33:45.007Z,21.20
2023-03-21T22:36:11.688Z,21.21
2023-03-21T22:38:38.557Z,21.19
2023-03-21T22:41:06.722Z,21.19
2023-03-21T22:43:35.333Z,21.19
2023-03-21T22:46:03.268Z,21.17
2023-03-21T22:48:30.914Z,21.17
2023-03-21T22:50:59.165Z,21.16
2023-03-21T22:53:25.986Z,21.16
2023-03-21T22:55:52.606Z,21.16
2023-03-21T22:58:19.229Z,21.16
2023-03-21T23:00:45.971Z,21.17
2023-03-21T23:03:14.630Z,21.17
2023-03-21T23:05:41.662Z,21.15
2023-03-21T23:08:08.666Z,21.13
2023-03-21T23:10:38.188Z,21.12
2023-03-21T23:13:06.078Z,21.11
2023-03-21T23:15:32.846Z,21.10
2023-03-21T23:17:59.442Z,21.10
2023-03-21T23:20:25.949Z,21.09
2023-03-21T23:22:52.498Z,21.08
2023-03-21T23:25:20.626Z,21.07
2023-03-21T23:27:47.698Z,21.08
2023-03-21T23:30:14.462Z,21.06
2023-03-21T23:32:41.289Z,21.06
2023-03-21T23:35:09.284Z,21.06
2023-03-21T23:37:35.868Z,21.05
2023-03-21T23:40:02.636Z,21.06
2023-03-21T23:42:30.464Z,21.04
2023-03-21T23:44:57.306Z,21.04
2023-03-21T23:47:23.869Z,21.03
2023-03-21T23:49:52.762Z,21.03
2023-03-21T23:52:19.559Z,21.03
2023-03-21T23:54:46.228Z,21.01
2023-03-21T23:57:12.772Z,21.01
2023-03-21T23:59:39.352Z,21.00
